Time,TemperatureF,DewpointF,PressureIn,WindDirection,WindDirectionDegrees,WindSpeedMPH,WindSpeedGustMPH,Humidity,HourlyPrecipIn,Conditions,Clouds,dailyrainin,SoftwareType,DateUTC
2013-11-26 00:22:00,39.0,36.0,30.23,NE,53,0.0,3.0,89,0.00,,,0.00,,2013-11-26 08:22:00,
2013-11-26 00:32:00,-999.0,-99.9,30.23,ENE,59,0.0,2.0,-999,0.00,,,0.00,,2013-11-26 08:32:00,
2013-11-26 00:42:00,-999.0,-99.9,30.23,ENE,59,0.0,2.0,-999,0.00,,,0.00,,2013-11-26 08:42:00,
2013-11-26 00:52:00,39.0,36.0,30.24,East,80,0.0,3.0,88,0.00,,,0.00,,2013-11-26 08:52:00,
2013-11-26 01:21:00,39.0,36.0,30.23,East,79,0.0,1.0,89,0.00,,,0.00,,2013-11-26 09:21:00,
2013-11-26 01:43:00,39.0,36.0,30.22,East,79,0.0,0.0,89,0.00,,,0.00,,2013-11-26 09:43:00,
2013-11-26 01:53:00,38.0,35.0,30.22,ENE,63,0.0,2.0,89,0.00,,,0.00,,2013-11-26 09:53:00,
2013-11-26 02:12:00,38.0,36.0,30.22,ENE,63,0.0,1.0,91,0.00,,,0.00,,2013-11-26 10:12:00,
2013-11-26 02:23:00,38.0,36.0,30.22,NE,44,0.0,0.0,91,0.00,,,0.00,,2013-11-26 10:23:00,
2013-11-26 02:43:00,38.0,35.0,30.22,SSE,148,0.0,3.0,89,0.00,,,0.00,,2013-11-26 10:43:00,
2013-11-26 02:53:00,37.0,34.0,30.21,ESE,108,0.0,2.0,89,0.00,,,0.00,,2013-11-26 10:53:00,
2013-11-26 03:23:00,37.0,35.0,30.21,ESE,111,0.0,1.0,91,0.00,,,0.00,,2013-11-26 11:23:00,
2013-11-26 03:52:00,37.0,35.0,30.20,ESE,111,0.0,1.0,91,0.00,,,0.00,,2013-11-26 11:52:00,
2013-11-26 04:21:00,37.0,34.0,30.19,East,94,1.0,3.0,90,0.00,,,0.00,,2013-11-26 12:21:00,
2013-11-26 04:42:00,37.0,35.0,30.19,East,94,0.0,1.0,91,0.00,,,0.00,,2013-11-26 12:42:00,
2013-11-26 04:52:00,36.0,34.0,30.19,East,94,0.0,2.0,91,0.00,,,0.00,,2013-11-26 12:52:00,
2013-11-26 05:21:00,37.0,35.0,30.18,East,80,0.0,1.0,91,0.00,,,0.00,,2013-11-26 13:21:00,
2013-11-26 05:42:00,36.0,34.0,30.19,East,79,0.0,0.0,91,0.00,,,0.00,,2013-11-26 13:42:00,
2013-11-26 05:52:00,36.0,34.0,30.19,ENE,73,0.0,2.0,91,0.00,,,0.00,,2013-11-26 13:52:00,
2013-11-26 06:21:00,37.0,34.0,30.18,ENE,74,0.0,3.0,88,0.00,,,0.00,,2013-11-26 14:21:00,
2013-11-26 06:52:00,36.0,33.0,30.18,East,80,0.0,1.0,89,0.00,,,0.00,,2013-11-26 14:52:00,
2013-11-26 07:21:00,36.0,33.0,30.17,East,92,1.0,2.0,90,0.00,,,0.00,,2013-11-26 15:21:00,
2013-11-26 07:54:00,36.0,33.0,30.17,East,88,0.0,3.0,89,0.00,,,0.00,,2013-11-26 15:54:00,
2013-11-26 08:13:00,36.0,33.0,30.18,East,100,0.0,3.0,90,0.00,,,0.00,,2013-11-26 16:13:00,
2013-11-26 08:23:00,36.0,34.0,30.19,East,101,1.0,3.0,91,0.00,,,0.00,,2013-11-26 16:23:00,
2013-11-26 08:43:00,35.0,33.0,30.18,ESE,103,1.0,2.0,91,0.00,,,0.00,,2013-11-26 16:43:00,
2013-11-26 08:54:00,36.0,34.0,30.18,East,81,1.0,5.0,91,0.00,,,0.00,,2013-11-26 16:54:00,
2013-11-26 09:22:00,36.0,34.0,30.17,SE,132,1.0,3.0,92,0.00,,,0.00,,2013-11-26 17:22:00,
2013-11-26 09:42:00,36.0,34.0,30.18,East,90,0.0,3.0,92,0.00,,,0.00,,2013-11-26 17:42:00,
2013-11-26 09:52:00,37.0,34.0,30.19,East,90,0.0,1.0,90,0.00,,,0.00,,2013-11-26 17:52:00,
2013-11-26 10:21:00,37.0,35.0,30.18,East,90,0.0,1.0,91,0.00,,,0.00,,2013-11-26 18:21:00,
2013-11-26 10:42:00,38.0,35.0,30.19,East,90,0.0,1.0,88,0.00,,,0.00,,2013-11-26 18:42:00,
2013-11-26 10:53:00,39.0,35.0,30.19,ESE,102,0.0,1.0,85,0.00,,,0.00,,2013-11-26 18:53:00,
2013-11-26 11:11:00,39.0,36.0,30.18,ESE,102,0.0,1.0,88,0.00,,,0.00,,2013-11-26 19:11:00,
2013-11-26 11:21:00,39.0,36.0,30.17,ESE,102,0.0,2.0,88,0.00,,,0.00,,2013-11-26 19:21:00,
2013-11-26 11:52:00,40.0,36.0,30.14,East,97,0.0,1.0,87,0.00,,,0.00,,2013-11-26 19:52:00,
2013-11-26 12:22:00,42.0,38.0,30.14,South,176,0.0,0.0,85,0.00,,,0.00,,2013-11-26 20:22:00,
2013-11-26 12:42:00,43.0,39.0,30.14,SSE,150,0.0,1.0,85,0.00,,,0.00,,2013-11-26 20:42:00,
2013-11-26 12:53:00,44.0,38.0,30.14,SSE,150,0.0,0.0,79,0.00,,,0.00,,2013-11-26 20:53:00,
2013-11-26 13:11:00,44.0,39.0,30.14,SSE,150,0.0,1.0,81,0.00,,,0.00,,2013-11-26 21:11:00,
2013-11-26 13:22:00,45.0,39.0,30.13,SSE,150,0.0,1.0,78,0.00,,,0.00,,2013-11-26 21:22:00,
2013-11-26 13:43:00,45.0,38.0,30.13,SSE,150,0.0,0.0,77,0.00,,,0.00,,2013-11-26 21:43:00,
2013-11-26 13:53:00,45.0,39.0,30.12,SSE,150,0.0,2.0,80,0.00,,,0.00,,2013-11-26 21:53:00,
2013-11-26 14:23:00,45.0,39.0,30.11,SSE,150,0.0,0.0,79,0.00,,,0.00,,2013-11-26 22:23:00,
2013-11-26 14:43:00,45.0,40.0,30.11,SSE,150,0.0,0.0,81,0.00,,,0.00,,2013-11-26 22:43:00,
2013-11-26 14:53:00,45.0,41.0,30.11,SSE,150,0.0,0.0,85,0.00,,,0.00,,2013-11-26 22:53:00,
2013-11-26 15:22:00,45.0,41.0,30.10,SSE,150,0.0,0.0,86,0.00,,,0.00,,2013-11-26 23:22:00,
2013-11-26 15:43:00,45.0,41.0,30.10,SSE,150,0.0,0.0,86,0.00,,,0.00,,2013-11-26 23:43:00,
2013-11-26 15:53:00,45.0,41.0,30.10,SE,129,0.0,1.0,85,0.00,,,0.00,,2013-11-26 23:53:00,
2013-11-26 16:11:00,45.0,41.0,30.09,ESE,102,0.0,2.0,87,0.00,,,0.00,,2013-11-27 00:11:00,
2013-11-26 16:21:00,45.0,42.0,30.09,ESE,108,0.0,3.0,88,0.00,,,0.00,,2013-11-27 00:21:00,
2013-11-26 16:52:00,46.0,41.0,30.10,ESE,108,0.0,0.0,82,0.00,,,0.00,,2013-11-27 00:52:00,
2013-11-26 17:21:00,45.0,41.0,30.11,ESE,108,0.0,0.0,87,0.00,,,0.00,,2013-11-27 01:21:00,
2013-11-26 17:42:00,44.0,40.0,30.11,ESE,108,0.0,0.0,87,0.00,,,0.00,,2013-11-27 01:42:00,
2013-11-26 17:52:00,44.0,41.0,30.10,ESE,108,0.0,0.0,89,0.00,,,0.00,,2013-11-27 01:52:00,
2013-11-26 18:12:00,44.0,41.0,30.10,ESE,108,0.0,0.0,88,0.00,,,0.00,,2013-11-27 02:12:00,
2013-11-26 18:21:00,44.0,41.0,30.10,ESE,108,0.0,0.0,88,0.00,,,0.00,,2013-11-27 02:21:00,
2013-11-26 18:42:00,44.0,40.0,30.09,SE,124,1.0,4.0,87,0.00,,,0.00,,2013-11-27 02:42:00,
2013-11-26 18:52:00,43.0,40.0,30.09,East,92,0.0,3.0,88,0.00,,,0.00,,2013-11-27 02:52:00,
2013-11-26 19:21:00,43.0,39.0,30.09,East,90,0.0,4.0,87,0.00,,,0.00,,2013-11-27 03:21:00,
2013-11-26 19:44:00,43.0,39.0,30.09,East,93,1.0,2.0,85,0.00,,,0.00,,2013-11-27 03:44:00,
2013-11-26 19:53:00,43.0,39.0,30.09,ESE,108,2.0,5.0,85,0.00,,,0.00,,2013-11-27 03:53:00,
2013-11-26 20:13:00,43.0,39.0,30.09,East,92,1.0,3.0,85,0.00,,,0.00,,2013-11-27 04:13:00,
2013-11-26 20:43:00,43.0,38.0,30.09,NE,53,0.0,3.0,82,0.00,,,0.00,,2013-11-27 04:43:00,
2013-11-26 20:53:00,43.0,39.0,30.10,East,88,0.0,0.0,85,0.00,,,0.00,,2013-11-27 04:53:00,
2013-11-26 21:22:00,43.0,39.0,30.10,East,92,0.0,1.0,85,0.00,,,0.00,,2013-11-27 05:22:00,
2013-11-26 21:42:00,43.0,39.0,30.10,East,95,0.0,2.0,85,0.00,,,0.00,,2013-11-27 05:42:00,
2013-11-26 21:53:00,43.0,40.0,30.10,ESE,121,1.0,3.0,89,0.00,,,0.00,,2013-11-27 05:53:00,
2013-11-26 22:12:00,42.0,38.0,30.10,East,100,0.0,2.0,87,0.00,,,0.00,,2013-11-27 06:12:00,
2013-11-26 22:22:00,42.0,38.0,30.10,East,99,1.0,5.0,87,0.00,,,0.00,,2013-11-27 06:22:00,
2013-11-26 22:42:00,43.0,39.0,30.10,East,92,0.0,2.0,86,0.00,,,0.00,,2013-11-27 06:42:00,
2013-11-26 22:52:00,43.0,39.0,30.10,East,92,0.0,2.0,85,0.00,,,0.00,,2013-11-27 06:52:00,
2013-11-26 23:21:00,43.0,39.0,30.10,NE,44,1.0,5.0,85,0.00,,,0.00,,2013-11-27 07:21:00,
2013-11-26 23:42:00,43.0,39.0,30.10,ESE,111,0.0,3.0,85,0.00,,,0.00,,2013-11-27 07:42:00,
2013-11-26 23:52:00,43.0,39.0,30.09,East,96,2.0,4.0,85,0.00,,,0.00,,2013-11-27 07:52:00,